Route Details

Aircraft Information
Group: Boeing 767
Types: B762, B763
Route Data
Distance: 2261nm
Duration: 5h 20m
Origin METAR: PHNL 010553Z 20003KT 10SM FEW033 FEW050 25/22 A2997 RMK AO2 SLP147 T02500222 10283 20250 52023
Dest. METAR: KONT 010553Z 06009KT 10SM CLR 12/M12 A3011 RMK AO2 SLP193 T01221122 10150 20122 53015
Freight Data
(for Feb 1, 2023)
Load Factor:
52%
Manifested Cargo: 57,582lbs
Financial History
Total Freight: 0lbs
Average Load: 0lbs/flt
Fuel Used: 0lbs
Avg. Fuel Used: 0lbs/flt
Fuel Expense: $0
Avg. Fuel Expense: $0
Avg. Fuel Cost: $0/lbs
Total Gross Income: $0
Pilot Pay: $0
Total Expenses: $0
Total Revenue: $0
Average Revenue: $0

Capitol Logistics 407




PHNL
Daniel K Inouye International Airport
Honolulu, Hawaii
KONT
Ontario International Airport
Ontario, California

Activity Log

Date Flight Route Aircraft Duration
No Flights Yet